sensor_id;sensor_type;location;lat;lon;timestamp;P1;durP1;ratioP1;P2;durP2;ratioP2
21507;SDS011;10915;54.352;9.074;2023-02-23T00:00:23;62.83;;;33.30;;
21507;SDS011;10915;54.352;9.074;2023-02-23T00:03:00;64.00;;;31.13;;
21507;SDS011;10915;54.352;9.074;2023-02-23T00:05:27;63.27;;;34.40;;
21507;SDS011;10915;54.352;9.074;2023-02-23T00:07:53;74.53;;;35.50;;
21507;SDS011;10915;54.352;9.074;2023-02-23T00:10:20;83.00;;;38.50;;
21507;SDS011;10915;54.352;9.074;2023-02-23T00:12:46;77.77;;;39.57;;
21507;SDS011;10915;54.352;9.074;2023-02-23T00:15:15;84.90;;;40.90;;
21507;SDS011;10915;54.352;9.074;2023-02-23T00:17:41;83.40;;;40.93;;
21507;SDS011;10915;54.352;9.074;2023-02-23T00:20:08;87.23;;;41.50;;
21507;SDS011;10915;54.352;9.074;2023-02-23T00:22:36;86.40;;;40.07;;
21507;SDS011;10915;54.352;9.074;2023-02-23T00:25:06;84.17;;;39.23;;
21507;SDS011;10915;54.352;9.074;2023-02-23T00:27:34;78.70;;;39.40;;
21507;SDS011;10915;54.352;9.074;2023-02-23T00:30:02;76.20;;;39.10;;
21507;SDS011;10915;54.352;9.074;2023-02-23T00:32:28;78.10;;;39.90;;
21507;SDS011;10915;54.352;9.074;2023-02-23T00:34:54;83.40;;;41.30;;
21507;SDS011;10915;54.352;9.074;2023-02-23T00:37:22;90.07;;;41.03;;
21507;SDS011;10915;54.352;9.074;2023-02-23T00:39:48;84.63;;;39.20;;
21507;SDS011;10915;54.352;9.074;2023-02-23T00:42:14;73.57;;;38.17;;
21507;SDS011;10915;54.352;9.074;2023-02-23T00:44:39;83.13;;;40.20;;
21507;SDS011;10915;54.352;9.074;2023-02-23T00:47:06;80.43;;;39.30;;
21507;SDS011;10915;54.352;9.074;2023-02-23T00:49:31;79.20;;;37.47;;
21507;SDS011;10915;54.352;9.074;2023-02-23T00:51:57;78.33;;;37.67;;
21507;SDS011;10915;54.352;9.074;2023-02-23T00:54:23;74.57;;;37.57;;
21507;SDS011;10915;54.352;9.074;2023-02-23T00:56:49;81.87;;;38.07;;
21507;SDS011;10915;54.352;9.074;2023-02-23T00:59:15;82.43;;;37.93;;
21507;SDS011;10915;54.352;9.074;2023-02-23T01:01:41;79.03;;;36.90;;
21507;SDS011;10915;54.352;9.074;2023-02-23T01:04:07;82.90;;;39.27;;
21507;SDS011;10915;54.352;9.074;2023-02-23T01:06:35;81.37;;;36.53;;
21507;SDS011;10915;54.352;9.074;2023-02-23T01:09:04;75.97;;;37.20;;
21507;SDS011;10915;54.352;9.074;2023-02-23T01:11:34;78.27;;;36.47;;
21507;SDS011;10915;54.352;9.074;2023-02-23T01:14:00;79.80;;;37.57;;
21507;SDS011;10915;54.352;9.074;2023-02-23T01:16:28;77.33;;;35.87;;
21507;SDS011;10915;54.352;9.074;2023-02-23T01:18:56;77.23;;;36.57;;
21507;SDS011;10915;54.352;9.074;2023-02-23T01:21:24;82.37;;;37.33;;
21507;SDS011;10915;54.352;9.074;2023-02-23T01:23:52;76.17;;;38.27;;
21507;SDS011;10915;54.352;9.074;2023-02-23T01:26:22;79.87;;;38.77;;
21507;SDS011;10915;54.352;9.074;2023-02-23T01:28:53;85.30;;;37.67;;
21507;SDS011;10915;54.352;9.074;2023-02-23T01:31:21;79.70;;;38.57;;
21507;SDS011;10915;54.352;9.074;2023-02-23T01:33:52;72.27;;;35.17;;
21507;SDS011;10915;54.352;9.074;2023-02-23T01:36:19;65.53;;;34.80;;
21507;SDS011;10915;54.352;9.074;2023-02-23T01:38:45;79.33;;;35.83;;
21507;SDS011;10915;54.352;9.074;2023-02-23T01:41:17;76.37;;;35.67;;
21507;SDS011;10915;54.352;9.074;2023-02-23T01:46:37;62.90;;;33.30;;
21507;SDS011;10915;54.352;9.074;2023-02-23T01:49:04;60.67;;;30.33;;
21507;SDS011;10915;54.352;9.074;2023-02-23T01:51:33;63.40;;;31.33;;
21507;SDS011;10915;54.352;9.074;2023-02-23T01:56:42;64.17;;;31.80;;
21507;SDS011;10915;54.352;9.074;2023-02-23T01:59:11;64.07;;;31.17;;
21507;SDS011;10915;54.352;9.074;2023-02-23T02:01:39;66.07;;;32.27;;
21507;SDS011;10915;54.352;9.074;2023-02-23T02:04:06;70.67;;;33.50;;
21507;SDS011;10915;54.352;9.074;2023-02-23T02:06:33;71.63;;;32.97;;
21507;SDS011;10915;54.352;9.074;2023-02-23T02:09:02;73.40;;;35.30;;
21507;SDS011;10915;54.352;9.074;2023-02-23T02:11:31;87.20;;;39.57;;
21507;SDS011;10915;54.352;9.074;2023-02-23T02:14:08;93.93;;;42.30;;
21507;SDS011;10915;54.352;9.074;2023-02-23T02:19:18;100.27;;;43.60;;
21507;SDS011;10915;54.352;9.074;2023-02-23T02:22:09;96.30;;;43.67;;
21507;SDS011;10915;54.352;9.074;2023-02-23T02:24:46;97.90;;;44.17;;
21507;SDS011;10915;54.352;9.074;2023-02-23T02:33:35;111.20;;;49.23;;
21507;SDS011;10915;54.352;9.074;2023-02-23T02:39:05;123.80;;;52.80;;
21507;SDS011;10915;54.352;9.074;2023-02-23T02:42:07;131.60;;;56.23;;
21507;SDS011;10915;54.352;9.074;2023-02-23T02:47:24;118.07;;;51.20;;
21507;SDS011;10915;54.352;9.074;2023-02-23T02:53:01;127.53;;;54.73;;
21507;SDS011;10915;54.352;9.074;2023-02-23T02:55:34;129.53;;;53.90;;
21507;SDS011;10915;54.352;9.074;2023-02-23T02:58:08;132.70;;;56.43;;
21507;SDS011;10915;54.352;9.074;2023-02-23T03:00:37;128.60;;;54.00;;
21507;SDS011;10915;54.352;9.074;2023-02-23T03:03:35;121.63;;;52.13;;
21507;SDS011;10915;54.352;9.074;2023-02-23T03:06:32;128.50;;;52.93;;
21507;SDS011;10915;54.352;9.074;2023-02-23T03:09:53;140.67;;;54.53;;
21507;SDS011;10915;54.352;9.074;2023-02-23T03:19:05;132.00;;;54.63;;
21507;SDS011;10915;54.352;9.074;2023-02-23T03:22:41;125.17;;;52.10;;
21507;SDS011;10915;54.352;9.074;2023-02-23T03:25:18;131.87;;;53.07;;
21507;SDS011;10915;54.352;9.074;2023-02-23T03:28:23;141.67;;;54.13;;
21507;SDS011;10915;54.352;9.074;2023-02-23T03:31:16;154.33;;;56.27;;
21507;SDS011;10915;54.352;9.074;2023-02-23T03:37:03;164.77;;;54.60;;
21507;SDS011;10915;54.352;9.074;2023-02-23T03:39:56;165.23;;;56.33;;
21507;SDS011;10915;54.352;9.074;2023-02-23T03:43:06;164.07;;;56.40;;
21507;SDS011;10915;54.352;9.074;2023-02-23T03:45:56;184.63;;;61.93;;
21507;SDS011;10915;54.352;9.074;2023-02-23T03:48:45;159.23;;;56.63;;
21507;SDS011;10915;54.352;9.074;2023-02-23T03:51:33;190.23;;;60.30;;
21507;SDS011;10915;54.352;9.074;2023-02-23T03:54:21;171.43;;;55.87;;
21507;SDS011;10915;54.352;9.074;2023-02-23T03:57:13;174.73;;;57.57;;
21507;SDS011;10915;54.352;9.074;2023-02-23T04:00:08;181.63;;;56.20;;
21507;SDS011;10915;54.352;9.074;2023-02-23T04:02:59;174.43;;;57.40;;
21507;SDS011;10915;54.352;9.074;2023-02-23T04:05:49;161.00;;;54.53;;
21507;SDS011;10915;54.352;9.074;2023-02-23T04:08:37;162.17;;;55.33;;
21507;SDS011;10915;54.352;9.074;2023-02-23T04:14:35;170.23;;;57.80;;
21507;SDS011;10915;54.352;9.074;2023-02-23T04:17:03;158.30;;;55.77;;
21507;SDS011;10915;54.352;9.074;2023-02-23T04:19:37;187.77;;;63.60;;
21507;SDS011;10915;54.352;9.074;2023-02-23T04:22:03;173.93;;;59.23;;
21507;SDS011;10915;54.352;9.074;2023-02-23T04:24:31;202.83;;;64.20;;
21507;SDS011;10915;54.352;9.074;2023-02-23T04:26:58;180.83;;;63.27;;
21507;SDS011;10915;54.352;9.074;2023-02-23T04:29:30;182.10;;;62.57;;
21507;SDS011;10915;54.352;9.074;2023-02-23T04:32:17;199.73;;;66.87;;
21507;SDS011;10915;54.352;9.074;2023-02-23T04:34:51;217.03;;;70.10;;
21507;SDS011;10915;54.352;9.074;2023-02-23T04:37:19;190.67;;;66.50;;
21507;SDS011;10915;54.352;9.074;2023-02-23T04:39:52;233.70;;;73.27;;
21507;SDS011;10915;54.352;9.074;2023-02-23T04:42:18;221.67;;;72.47;;
21507;SDS011;10915;54.352;9.074;2023-02-23T04:44:45;250.67;;;77.73;;
21507;SDS011;10915;54.352;9.074;2023-02-23T04:47:13;231.37;;;71.07;;
21507;SDS011;10915;54.352;9.074;2023-02-23T04:49:43;249.97;;;72.70;;
21507;SDS011;10915;54.352;9.074;2023-02-23T04:52:09;218.50;;;74.20;;
21507;SDS011;10915;54.352;9.074;2023-02-23T04:54:38;242.07;;;76.17;;
21507;SDS011;10915;54.352;9.074;2023-02-23T04:57:04;230.17;;;75.17;;
21507;SDS011;10915;54.352;9.074;2023-02-23T04:59:34;233.63;;;76.47;;
21507;SDS011;10915;54.352;9.074;2023-02-23T05:02:00;228.47;;;77.10;;
21507;SDS011;10915;54.352;9.074;2023-02-23T05:04:26;233.87;;;79.07;;
21507;SDS011;10915;54.352;9.074;2023-02-23T05:06:52;214.70;;;75.03;;
21507;SDS011;10915;54.352;9.074;2023-02-23T05:09:18;212.90;;;73.33;;
21507;SDS011;10915;54.352;9.074;2023-02-23T05:11:45;214.23;;;75.80;;
21507;SDS011;10915;54.352;9.074;2023-02-23T05:14:11;214.27;;;72.77;;
21507;SDS011;10915;54.352;9.074;2023-02-23T05:16:38;217.67;;;74.77;;
21507;SDS011;10915;54.352;9.074;2023-02-23T05:19:04;211.07;;;73.53;;
21507;SDS011;10915;54.352;9.074;2023-02-23T05:21:30;192.63;;;70.67;;
21507;SDS011;10915;54.352;9.074;2023-02-23T05:23:56;221.60;;;76.50;;
21507;SDS011;10915;54.352;9.074;2023-02-23T05:26:22;218.97;;;72.33;;
21507;SDS011;10915;54.352;9.074;2023-02-23T05:28:48;214.60;;;68.43;;
21507;SDS011;10915;54.352;9.074;2023-02-23T05:31:14;219.13;;;71.40;;
21507;SDS011;10915;54.352;9.074;2023-02-23T05:33:41;209.77;;;73.87;;
21507;SDS011;10915;54.352;9.074;2023-02-23T05:36:08;199.60;;;73.33;;
21507;SDS011;10915;54.352;9.074;2023-02-23T05:38:35;201.00;;;71.70;;
21507;SDS011;10915;54.352;9.074;2023-02-23T05:41:07;208.33;;;73.53;;
21507;SDS011;10915;54.352;9.074;2023-02-23T05:43:35;206.70;;;72.57;;
21507;SDS011;10915;54.352;9.074;2023-02-23T05:46:04;208.03;;;74.13;;
21507;SDS011;10915;54.352;9.074;2023-02-23T05:48:34;198.20;;;73.03;;
21507;SDS011;10915;54.352;9.074;2023-02-23T05:51:02;197.73;;;73.67;;
21507;SDS011;10915;54.352;9.074;2023-02-23T05:53:29;207.37;;;74.30;;
21507;SDS011;10915;54.352;9.074;2023-02-23T05:56:00;197.13;;;75.30;;
21507;SDS011;10915;54.352;9.074;2023-02-23T05:58:27;205.60;;;74.63;;
21507;SDS011;10915;54.352;9.074;2023-02-23T06:00:52;195.93;;;74.57;;
21507;SDS011;10915;54.352;9.074;2023-02-23T06:03:18;208.00;;;78.13;;
21507;SDS011;10915;54.352;9.074;2023-02-23T06:05:50;201.73;;;77.07;;
21507;SDS011;10915;54.352;9.074;2023-02-23T06:08:18;206.77;;;77.67;;
21507;SDS011;10915;54.352;9.074;2023-02-23T06:10:44;207.63;;;76.90;;
21507;SDS011;10915;54.352;9.074;2023-02-23T06:13:10;209.93;;;77.03;;
21507;SDS011;10915;54.352;9.074;2023-02-23T06:15:37;202.50;;;78.03;;
21507;SDS011;10915;54.352;9.074;2023-02-23T06:18:03;198.37;;;77.73;;
21507;SDS011;10915;54.352;9.074;2023-02-23T06:20:29;184.37;;;74.20;;
21507;SDS011;10915;54.352;9.074;2023-02-23T06:22:55;225.17;;;82.43;;
21507;SDS011;10915;54.352;9.074;2023-02-23T06:25:21;189.80;;;74.23;;
21507;SDS011;10915;54.352;9.074;2023-02-23T06:27:47;226.23;;;83.23;;
21507;SDS011;10915;54.352;9.074;2023-02-23T06:30:13;199.40;;;78.97;;
21507;SDS011;10915;54.352;9.074;2023-02-23T06:32:39;202.57;;;79.17;;
21507;SDS011;10915;54.352;9.074;2023-02-23T06:35:05;218.67;;;79.63;;
21507;SDS011;10915;54.352;9.074;2023-02-23T06:37:32;227.87;;;83.83;;
21507;SDS011;10915;54.352;9.074;2023-02-23T06:39:59;213.60;;;82.77;;
21507;SDS011;10915;54.352;9.074;2023-02-23T06:42:28;219.17;;;81.80;;
21507;SDS011;10915;54.352;9.074;2023-02-23T06:44:54;205.43;;;79.90;;
21507;SDS011;10915;54.352;9.074;2023-02-23T06:47:20;217.43;;;81.07;;
21507;SDS011;10915;54.352;9.074;2023-02-23T06:49:45;221.83;;;81.57;;
21507;SDS011;10915;54.352;9.074;2023-02-23T06:52:11;214.13;;;78.33;;
21507;SDS011;10915;54.352;9.074;2023-02-23T06:54:38;218.43;;;83.33;;
21507;SDS011;10915;54.352;9.074;2023-02-23T06:57:05;222.80;;;82.40;;
21507;SDS011;10915;54.352;9.074;2023-02-23T06:59:34;200.27;;;79.37;;
21507;SDS011;10915;54.352;9.074;2023-02-23T07:02:01;216.07;;;83.50;;
21507;SDS011;10915;54.352;9.074;2023-02-23T07:04:29;208.27;;;80.93;;
21507;SDS011;10915;54.352;9.074;2023-02-23T07:06:56;214.47;;;79.83;;
21507;SDS011;10915;54.352;9.074;2023-02-23T07:09:21;210.03;;;78.97;;
21507;SDS011;10915;54.352;9.074;2023-02-23T07:11:47;211.77;;;81.77;;
21507;SDS011;10915;54.352;9.074;2023-02-23T07:14:13;224.93;;;82.93;;
21507;SDS011;10915;54.352;9.074;2023-02-23T07:16:39;195.00;;;74.73;;
21507;SDS011;10915;54.352;9.074;2023-02-23T07:19:05;190.30;;;73.13;;
21507;SDS011;10915;54.352;9.074;2023-02-23T07:21:31;190.93;;;76.47;;
21507;SDS011;10915;54.352;9.074;2023-02-23T07:23:58;197.07;;;73.47;;
21507;SDS011;10915;54.352;9.074;2023-02-23T07:26:25;194.73;;;73.13;;
21507;SDS011;10915;54.352;9.074;2023-02-23T07:28:51;177.57;;;72.27;;
21507;SDS011;10915;54.352;9.074;2023-02-23T07:31:16;181.07;;;70.60;;
21507;SDS011;10915;54.352;9.074;2023-02-23T07:33:42;172.47;;;68.20;;
21507;SDS011;10915;54.352;9.074;2023-02-23T07:36:08;155.53;;;63.37;;
21507;SDS011;10915;54.352;9.074;2023-02-23T07:38:34;168.10;;;64.70;;
21507;SDS011;10915;54.352;9.074;2023-02-23T07:41:00;156.90;;;62.93;;
21507;SDS011;10915;54.352;9.074;2023-02-23T07:43:27;147.20;;;58.23;;
21507;SDS011;10915;54.352;9.074;2023-02-23T07:45:54;150.27;;;58.93;;
21507;SDS011;10915;54.352;9.074;2023-02-23T07:48:24;111.17;;;41.87;;
21507;SDS011;10915;54.352;9.074;2023-02-23T07:50:53;152.43;;;60.57;;
21507;SDS011;10915;54.352;9.074;2023-02-23T07:53:19;138.40;;;55.40;;
21507;SDS011;10915;54.352;9.074;2023-02-23T07:55:44;135.83;;;54.20;;
21507;SDS011;10915;54.352;9.074;2023-02-23T07:58:10;149.77;;;55.83;;
21507;SDS011;10915;54.352;9.074;2023-02-23T08:00:39;145.93;;;57.50;;
21507;SDS011;10915;54.352;9.074;2023-02-23T08:03:05;140.13;;;57.20;;
21507;SDS011;10915;54.352;9.074;2023-02-23T08:05:31;137.87;;;54.83;;
21507;SDS011;10915;54.352;9.074;2023-02-23T08:07:57;141.80;;;57.37;;
21507;SDS011;10915;54.352;9.074;2023-02-23T08:10:23;142.57;;;54.50;;
21507;SDS011;10915;54.352;9.074;2023-02-23T08:12:56;124.17;;;52.10;;
21507;SDS011;10915;54.352;9.074;2023-02-23T08:15:22;130.87;;;53.37;;
21507;SDS011;10915;54.352;9.074;2023-02-23T08:17:49;125.13;;;53.23;;
21507;SDS011;10915;54.352;9.074;2023-02-23T08:20:15;122.70;;;51.80;;
21507;SDS011;10915;54.352;9.074;2023-02-23T08:22:41;123.17;;;51.40;;
21507;SDS011;10915;54.352;9.074;2023-02-23T08:25:07;120.67;;;51.30;;
21507;SDS011;10915;54.352;9.074;2023-02-23T08:27:34;122.33;;;53.50;;
21507;SDS011;10915;54.352;9.074;2023-02-23T08:30:00;126.77;;;53.17;;
21507;SDS011;10915;54.352;9.074;2023-02-23T08:32:28;132.67;;;54.90;;
21507;SDS011;10915;54.352;9.074;2023-02-23T08:34:59;125.07;;;51.57;;
21507;SDS011;10915;54.352;9.074;2023-02-23T08:37:27;126.70;;;54.40;;
21507;SDS011;10915;54.352;9.074;2023-02-23T08:39:54;131.90;;;54.53;;
21507;SDS011;10915;54.352;9.074;2023-02-23T08:42:20;121.03;;;51.47;;
21507;SDS011;10915;54.352;9.074;2023-02-23T08:44:46;135.20;;;54.27;;
21507;SDS011;10915;54.352;9.074;2023-02-23T08:47:13;125.70;;;51.90;;
21507;SDS011;10915;54.352;9.074;2023-02-23T08:49:43;135.27;;;56.07;;
21507;SDS011;10915;54.352;9.074;2023-02-23T08:52:09;120.40;;;50.67;;
21507;SDS011;10915;54.352;9.074;2023-02-23T08:54:35;122.30;;;51.90;;
21507;SDS011;10915;54.352;9.074;2023-02-23T08:57:02;130.53;;;54.17;;
21507;SDS011;10915;54.352;9.074;2023-02-23T08:59:28;125.03;;;52.60;;
21507;SDS011;10915;54.352;9.074;2023-02-23T09:01:54;131.03;;;52.97;;
21507;SDS011;10915;54.352;9.074;2023-02-23T09:04:20;128.20;;;48.17;;
21507;SDS011;10915;54.352;9.074;2023-02-23T09:06:47;130.27;;;49.47;;
21507;SDS011;10915;54.352;9.074;2023-02-23T09:09:14;130.33;;;51.93;;
21507;SDS011;10915;54.352;9.074;2023-02-23T09:11:40;139.67;;;48.90;;
21507;SDS011;10915;54.352;9.074;2023-02-23T09:14:06;126.33;;;48.20;;
21507;SDS011;10915;54.352;9.074;2023-02-23T09:16:32;127.87;;;47.00;;
21507;SDS011;10915;54.352;9.074;2023-02-23T09:18:59;129.13;;;48.40;;
21507;SDS011;10915;54.352;9.074;2023-02-23T09:21:27;129.60;;;49.47;;
21507;SDS011;10915;54.352;9.074;2023-02-23T09:23:54;124.10;;;47.23;;
21507;SDS011;10915;54.352;9.074;2023-02-23T09:26:20;124.70;;;48.57;;
21507;SDS011;10915;54.352;9.074;2023-02-23T09:28:47;120.80;;;46.67;;
21507;SDS011;10915;54.352;9.074;2023-02-23T09:31:15;128.83;;;47.47;;
21507;SDS011;10915;54.352;9.074;2023-02-23T09:33:42;132.53;;;47.87;;
21507;SDS011;10915;54.352;9.074;2023-02-23T09:36:12;104.70;;;39.60;;
21507;SDS011;10915;54.352;9.074;2023-02-23T09:38:44;101.90;;;41.77;;
21507;SDS011;10915;54.352;9.074;2023-02-23T09:44:01;94.40;;;39.40;;
21507;SDS011;10915;54.352;9.074;2023-02-23T09:49:22;89.20;;;38.10;;
21507;SDS011;10915;54.352;9.074;2023-02-23T09:51:53;88.03;;;37.77;;
21507;SDS011;10915;54.352;9.074;2023-02-23T09:54:23;80.83;;;37.60;;
21507;SDS011;10915;54.352;9.074;2023-02-23T09:56:52;85.97;;;35.03;;
21507;SDS011;10915;54.352;9.074;2023-02-23T09:59:22;79.13;;;34.17;;
21507;SDS011;10915;54.352;9.074;2023-02-23T10:02:04;73.47;;;33.23;;
21507;SDS011;10915;54.352;9.074;2023-02-23T10:09:58;69.00;;;32.03;;
21507;SDS011;10915;54.352;9.074;2023-02-23T10:12:40;64.83;;;30.27;;
21507;SDS011;10915;54.352;9.074;2023-02-23T10:18:19;62.77;;;29.00;;
21507;SDS011;10915;54.352;9.074;2023-02-23T10:21:14;55.27;;;27.07;;
21507;SDS011;10915;54.352;9.074;2023-02-23T10:23:55;54.27;;;27.07;;
21507;SDS011;10915;54.352;9.074;2023-02-23T10:26:26;62.13;;;27.30;;
21507;SDS011;10915;54.352;9.074;2023-02-23T10:28:57;64.67;;;27.50;;
21507;SDS011;10915;54.352;9.074;2023-02-23T10:34:05;62.13;;;26.97;;
21507;SDS011;10915;54.352;9.074;2023-02-23T10:36:43;65.30;;;28.03;;
21507;SDS011;10915;54.352;9.074;2023-02-23T10:39:21;58.17;;;26.43;;
21507;SDS011;10915;54.352;9.074;2023-02-23T10:41:47;59.13;;;26.50;;
21507;SDS011;10915;54.352;9.074;2023-02-23T10:44:20;64.67;;;28.20;;
21507;SDS011;10915;54.352;9.074;2023-02-23T10:46:53;69.03;;;28.30;;
21507;SDS011;10915;54.352;9.074;2023-02-23T10:49:27;70.70;;;30.60;;
21507;SDS011;10915;54.352;9.074;2023-02-23T10:52:03;72.87;;;29.33;;
21507;SDS011;10915;54.352;9.074;2023-02-23T10:57:20;61.03;;;27.67;;
21507;SDS011;10915;54.352;9.074;2023-02-23T10:59:58;68.23;;;27.60;;
21507;SDS011;10915;54.352;9.074;2023-02-23T11:02:27;70.70;;;30.13;;
21507;SDS011;10915;54.352;9.074;2023-02-23T11:04:58;73.47;;;29.33;;
21507;SDS011;10915;54.352;9.074;2023-02-23T11:07:26;75.17;;;29.33;;
21507;SDS011;10915;54.352;9.074;2023-02-23T11:09:56;78.13;;;30.37;;
21507;SDS011;10915;54.352;9.074;2023-02-23T11:12:35;67.40;;;27.77;;
21507;SDS011;10915;54.352;9.074;2023-02-23T11:17:57;58.00;;;24.10;;
21507;SDS011;10915;54.352;9.074;2023-02-23T11:20:28;54.00;;;22.27;;
21507;SDS011;10915;54.352;9.074;2023-02-23T11:25:54;48.40;;;20.73;;
21507;SDS011;10915;54.352;9.074;2023-02-23T11:28:25;43.60;;;19.33;;
21507;SDS011;10915;54.352;9.074;2023-02-23T11:30:57;48.63;;;19.43;;
21507;SDS011;10915;54.352;9.074;2023-02-23T11:33:28;43.97;;;19.03;;
21507;SDS011;10915;54.352;9.074;2023-02-23T11:36:00;46.00;;;19.87;;
21507;SDS011;10915;54.352;9.074;2023-02-23T11:38:39;53.60;;;19.70;;
21507;SDS011;10915;54.352;9.074;2023-02-23T11:41:06;55.23;;;20.07;;
21507;SDS011;10915;54.352;9.074;2023-02-23T11:43:55;47.53;;;19.93;;
21507;SDS011;10915;54.352;9.074;2023-02-23T11:46:22;45.70;;;18.67;;
21507;SDS011;10915;54.352;9.074;2023-02-23T11:48:55;44.53;;;17.30;;
21507;SDS011;10915;54.352;9.074;2023-02-23T11:51:30;50.50;;;18.63;;
21507;SDS011;10915;54.352;9.074;2023-02-23T11:53:57;46.27;;;18.30;;
21507;SDS011;10915;54.352;9.074;2023-02-23T11:56:25;47.07;;;19.23;;
21507;SDS011;10915;54.352;9.074;2023-02-23T11:58:54;49.27;;;18.53;;
21507;SDS011;10915;54.352;9.074;2023-02-23T12:01:34;46.73;;;18.10;;
21507;SDS011;10915;54.352;9.074;2023-02-23T12:04:34;52.00;;;19.40;;
21507;SDS011;10915;54.352;9.074;2023-02-23T12:10:15;54.20;;;20.50;;
21507;SDS011;10915;54.352;9.074;2023-02-23T12:15:33;53.93;;;20.63;;
21507;SDS011;10915;54.352;9.074;2023-02-23T12:18:14;54.63;;;21.27;;
21507;SDS011;10915;54.352;9.074;2023-02-23T12:20:47;55.30;;;23.63;;
21507;SDS011;10915;54.352;9.074;2023-02-23T12:23:22;55.27;;;22.83;;
21507;SDS011;10915;54.352;9.074;2023-02-23T12:25:56;57.10;;;22.97;;
21507;SDS011;10915;54.352;9.074;2023-02-23T12:28:37;56.10;;;22.33;;
21507;SDS011;10915;54.352;9.074;2023-02-23T12:33:49;68.53;;;24.40;;
21507;SDS011;10915;54.352;9.074;2023-02-23T12:38:55;51.30;;;18.57;;
21507;SDS011;10915;54.352;9.074;2023-02-23T12:41:38;46.17;;;16.87;;
21507;SDS011;10915;54.352;9.074;2023-02-23T12:44:31;44.23;;;16.77;;
21507;SDS011;10915;54.352;9.074;2023-02-23T12:52:52;58.83;;;18.23;;
21507;SDS011;10915;54.352;9.074;2023-02-23T12:55:35;49.83;;;15.00;;
21507;SDS011;10915;54.352;9.074;2023-02-23T13:00:45;42.53;;;11.63;;
21507;SDS011;10915;54.352;9.074;2023-02-23T13:19:45;31.83;;;7.20;;
21507;SDS011;10915;54.352;9.074;2023-02-23T13:22:39;34.60;;;7.17;;
21507;SDS011;10915;54.352;9.074;2023-02-23T13:30:56;31.20;;;7.27;;
21507;SDS011;10915;54.352;9.074;2023-02-23T13:33:26;31.40;;;6.23;;
21507;SDS011;10915;54.352;9.074;2023-02-23T13:35:58;30.03;;;6.07;;
21507;SDS011;10915;54.352;9.074;2023-02-23T13:47:08;25.07;;;5.97;;
21507;SDS011;10915;54.352;9.074;2023-02-23T13:49:50;30.13;;;5.70;;
21507;SDS011;10915;54.352;9.074;2023-02-23T13:54:58;22.67;;;5.70;;
21507;SDS011;10915;54.352;9.074;2023-02-23T13:57:26;26.97;;;6.40;;
21507;SDS011;10915;54.352;9.074;2023-02-23T13:59:53;24.73;;;5.37;;
21507;SDS011;10915;54.352;9.074;2023-02-23T14:05:03;25.73;;;5.97;;
21507;SDS011;10915;54.352;9.074;2023-02-23T14:07:55;20.07;;;5.50;;
21507;SDS011;10915;54.352;9.074;2023-02-23T14:10:27;19.23;;;5.13;;
21507;SDS011;10915;54.352;9.074;2023-02-23T14:15:46;20.57;;;4.83;;
21507;SDS011;10915;54.352;9.074;2023-02-23T14:25:49;25.70;;;5.33;;
21507;SDS011;10915;54.352;9.074;2023-02-23T14:44:12;17.97;;;4.30;;
21507;SDS011;10915;54.352;9.074;2023-02-23T14:49:21;17.33;;;4.20;;
21507;SDS011;10915;54.352;9.074;2023-02-23T14:51:50;17.50;;;5.30;;
21507;SDS011;10915;54.352;9.074;2023-02-23T14:54:21;19.37;;;4.73;;
21507;SDS011;10915;54.352;9.074;2023-02-23T14:56:48;25.77;;;4.80;;
21507;SDS011;10915;54.352;9.074;2023-02-23T14:59:20;18.50;;;4.87;;
21507;SDS011;10915;54.352;9.074;2023-02-23T15:01:48;20.53;;;4.90;;
21507;SDS011;10915;54.352;9.074;2023-02-23T15:04:19;22.03;;;4.77;;
21507;SDS011;10915;54.352;9.074;2023-02-23T15:06:47;23.83;;;5.50;;
21507;SDS011;10915;54.352;9.074;2023-02-23T15:09:29;29.07;;;5.20;;
21507;SDS011;10915;54.352;9.074;2023-02-23T15:11:59;15.77;;;4.30;;
21507;SDS011;10915;54.352;9.074;2023-02-23T15:14:33;21.03;;;4.63;;
21507;SDS011;10915;54.352;9.074;2023-02-23T15:17:01;21.03;;;4.60;;
21507;SDS011;10915;54.352;9.074;2023-02-23T15:19:27;19.23;;;4.40;;
21507;SDS011;10915;54.352;9.074;2023-02-23T15:21:59;19.83;;;4.97;;
21507;SDS011;10915;54.352;9.074;2023-02-23T15:24:29;16.43;;;4.43;;
21507;SDS011;10915;54.352;9.074;2023-02-23T15:27:14;19.80;;;4.63;;
21507;SDS011;10915;54.352;9.074;2023-02-23T15:29:42;20.33;;;4.47;;
21507;SDS011;10915;54.352;9.074;2023-02-23T15:32:26;17.40;;;4.33;;
21507;SDS011;10915;54.352;9.074;2023-02-23T15:34:52;21.90;;;4.43;;
21507;SDS011;10915;54.352;9.074;2023-02-23T15:37:25;18.57;;;4.70;;
21507;SDS011;10915;54.352;9.074;2023-02-23T15:40:04;18.97;;;4.37;;
21507;SDS011;10915;54.352;9.074;2023-02-23T15:42:35;23.60;;;4.83;;
21507;SDS011;10915;54.352;9.074;2023-02-23T15:45:12;20.23;;;4.77;;
21507;SDS011;10915;54.352;9.074;2023-02-23T15:47:43;18.63;;;4.47;;
21507;SDS011;10915;54.352;9.074;2023-02-23T15:50:14;19.73;;;3.87;;
21507;SDS011;10915;54.352;9.074;2023-02-23T15:52:47;16.87;;;4.60;;
21507;SDS011;10915;54.352;9.074;2023-02-23T15:55:29;19.80;;;4.83;;
21507;SDS011;10915;54.352;9.074;2023-02-23T15:57:59;18.43;;;4.97;;
21507;SDS011;10915;54.352;9.074;2023-02-23T16:00:38;17.73;;;4.60;;
21507;SDS011;10915;54.352;9.074;2023-02-23T16:03:06;15.70;;;3.63;;
21507;SDS011;10915;54.352;9.074;2023-02-23T16:05:53;20.20;;;5.00;;
21507;SDS011;10915;54.352;9.074;2023-02-23T16:08:23;19.93;;;4.37;;
21507;SDS011;10915;54.352;9.074;2023-02-23T16:10:54;15.37;;;4.17;;
21507;SDS011;10915;54.352;9.074;2023-02-23T16:13:31;17.77;;;4.53;;
21507;SDS011;10915;54.352;9.074;2023-02-23T16:15:57;23.07;;;4.00;;
21507;SDS011;10915;54.352;9.074;2023-02-23T16:18:40;21.80;;;4.07;;
21507;SDS011;10915;54.352;9.074;2023-02-23T16:21:07;17.93;;;4.30;;
21507;SDS011;10915;54.352;9.074;2023-02-23T16:23:41;14.63;;;3.97;;
21507;SDS011;10915;54.352;9.074;2023-02-23T16:26:10;20.57;;;4.77;;
21507;SDS011;10915;54.352;9.074;2023-02-23T16:28:53;24.40;;;5.17;;
21507;SDS011;10915;54.352;9.074;2023-02-23T16:31:23;20.60;;;4.90;;
21507;SDS011;10915;54.352;9.074;2023-02-23T16:34:16;16.50;;;4.03;;
21507;SDS011;10915;54.352;9.074;2023-02-23T16:37:21;20.63;;;4.37;;
21507;SDS011;10915;54.352;9.074;2023-02-23T16:39:49;16.57;;;4.63;;
21507;SDS011;10915;54.352;9.074;2023-02-23T16:42:19;20.13;;;4.87;;
21507;SDS011;10915;54.352;9.074;2023-02-23T16:44:52;21.93;;;4.90;;
21507;SDS011;10915;54.352;9.074;2023-02-23T16:49:47;19.67;;;4.63;;
21507;SDS011;10915;54.352;9.074;2023-02-23T16:52:15;23.00;;;4.33;;
21507;SDS011;10915;54.352;9.074;2023-02-23T16:54:43;14.00;;;4.03;;
21507;SDS011;10915;54.352;9.074;2023-02-23T16:57:17;14.70;;;4.17;;
21507;SDS011;10915;54.352;9.074;2023-02-23T16:59:54;20.03;;;4.07;;
21507;SDS011;10915;54.352;9.074;2023-02-23T17:02:21;16.27;;;4.60;;
21507;SDS011;10915;54.352;9.074;2023-02-23T17:04:47;14.90;;;3.77;;
21507;SDS011;10915;54.352;9.074;2023-02-23T17:07:15;21.13;;;4.40;;
21507;SDS011;10915;54.352;9.074;2023-02-23T17:09:42;20.60;;;4.30;;
21507;SDS011;10915;54.352;9.074;2023-02-23T17:12:11;14.43;;;3.17;;